sensor_id;sensor_type;location;lat;lon;timestamp;temperature;humidity
19586;DHT22;9939;49.246;9.106;2022-07-10T00:01:05;16.40;99.90
19586;DHT22;9939;49.246;9.106;2022-07-10T00:03:32;16.30;99.90
19586;DHT22;9939;49.246;9.106;2022-07-10T00:05:59;16.30;99.90
19586;DHT22;9939;49.246;9.106;2022-07-10T00:08:26;16.30;99.90
19586;DHT22;9939;49.246;9.106;2022-07-10T00:10:53;16.30;99.90
19586;DHT22;9939;49.246;9.106;2022-07-10T00:13:20;16.40;99.90
19586;DHT22;9939;49.246;9.106;2022-07-10T00:15:47;16.40;99.90
19586;DHT22;9939;49.246;9.106;2022-07-10T00:18:14;16.50;99.90
19586;DHT22;9939;49.246;9.106;2022-07-10T00:20:41;16.40;99.90
19586;DHT22;9939;49.246;9.106;2022-07-10T00:23:08;16.50;99.90
19586;DHT22;9939;49.246;9.106;2022-07-10T00:25:35;16.30;99.90
19586;DHT22;9939;49.246;9.106;2022-07-10T00:28:02;16.20;99.90
19586;DHT22;9939;49.246;9.106;2022-07-10T00:30:31;16.30;99.90
19586;DHT22;9939;49.246;9.106;2022-07-10T00:32:58;16.40;99.90
19586;DHT22;9939;49.246;9.106;2022-07-10T00:35:26;16.40;99.90
19586;DHT22;9939;49.246;9.106;2022-07-10T00:37:53;16.70;99.90
19586;DHT22;9939;49.246;9.106;2022-07-10T00:40:20;16.30;99.90
19586;DHT22;9939;49.246;9.106;2022-07-10T00:42:47;16.40;99.90
19586;DHT22;9939;49.246;9.106;2022-07-10T00:45:14;16.30;99.90
19586;DHT22;9939;49.246;9.106;2022-07-10T00:47:41;16.30;99.90
19586;DHT22;9939;49.246;9.106;2022-07-10T00:50:08;16.40;99.90
19586;DHT22;9939;49.246;9.106;2022-07-10T00:52:35;16.50;99.90
19586;DHT22;9939;49.246;9.106;2022-07-10T00:55:07;16.60;99.90
19586;DHT22;9939;49.246;9.106;2022-07-10T00:57:36;16.50;99.90
19586;DHT22;9939;49.246;9.106;2022-07-10T01:00:05;16.40;99.90
19586;DHT22;9939;49.246;9.106;2022-07-10T01:02:32;16.30;99.90
19586;DHT22;9939;49.246;9.106;2022-07-10T01:04:59;16.30;99.90
19586;DHT22;9939;49.246;9.106;2022-07-10T01:07:26;16.30;99.90
19586;DHT22;9939;49.246;9.106;2022-07-10T01:09:53;16.50;99.90
19586;DHT22;9939;49.246;9.106;2022-07-10T01:12:21;16.30;99.90
19586;DHT22;9939;49.246;9.106;2022-07-10T01:14:48;16.20;99.90
19586;DHT22;9939;49.246;9.106;2022-07-10T01:17:16;16.10;99.90
19586;DHT22;9939;49.246;9.106;2022-07-10T01:19:43;16.20;99.90
19586;DHT22;9939;49.246;9.106;2022-07-10T01:22:10;16.20;99.90
19586;DHT22;9939;49.246;9.106;2022-07-10T01:24:37;16.00;99.90
19586;DHT22;9939;49.246;9.106;2022-07-10T01:27:05;15.90;99.90
19586;DHT22;9939;49.246;9.106;2022-07-10T01:29:32;16.10;99.90
19586;DHT22;9939;49.246;9.106;2022-07-10T01:31:59;15.80;99.90
19586;DHT22;9939;49.246;9.106;2022-07-10T01:34:28;15.80;99.90
19586;DHT22;9939;49.246;9.106;2022-07-10T01:36:55;15.70;99.90
19586;DHT22;9939;49.246;9.106;2022-07-10T01:39:21;15.70;99.90
19586;DHT22;9939;49.246;9.106;2022-07-10T01:41:48;15.50;99.90
19586;DHT22;9939;49.246;9.106;2022-07-10T01:44:15;15.40;99.90
19586;DHT22;9939;49.246;9.106;2022-07-10T01:46:46;15.30;99.90
19586;DHT22;9939;49.246;9.106;2022-07-10T01:49:13;15.20;99.90
19586;DHT22;9939;49.246;9.106;2022-07-10T01:51:40;15.10;99.90
19586;DHT22;9939;49.246;9.106;2022-07-10T01:54:07;15.10;99.90
19586;DHT22;9939;49.246;9.106;2022-07-10T01:56:34;15.00;99.90
19586;DHT22;9939;49.246;9.106;2022-07-10T01:59:02;15.00;99.90
19586;DHT22;9939;49.246;9.106;2022-07-10T02:01:31;15.00;99.90
19586;DHT22;9939;49.246;9.106;2022-07-10T02:03:58;14.90;99.90
19586;DHT22;9939;49.246;9.106;2022-07-10T02:06:43;14.80;99.90
19586;DHT22;9939;49.246;9.106;2022-07-10T02:09:11;14.90;99.90
19586;DHT22;9939;49.246;9.106;2022-07-10T02:11:38;14.90;99.90
19586;DHT22;9939;49.246;9.106;2022-07-10T02:14:05;14.70;99.90
19586;DHT22;9939;49.246;9.106;2022-07-10T02:16:32;14.80;99.90
19586;DHT22;9939;49.246;9.106;2022-07-10T02:18:59;14.70;99.90
19586;DHT22;9939;49.246;9.106;2022-07-10T02:21:26;14.70;99.90
19586;DHT22;9939;49.246;9.106;2022-07-10T02:23:53;14.80;99.90
19586;DHT22;9939;49.246;9.106;2022-07-10T02:26:19;14.60;99.90
19586;DHT22;9939;49.246;9.106;2022-07-10T02:28:46;14.70;99.90
19586;DHT22;9939;49.246;9.106;2022-07-10T02:31:13;14.70;99.90
19586;DHT22;9939;49.246;9.106;2022-07-10T02:33:40;14.50;99.90
19586;DHT22;9939;49.246;9.106;2022-07-10T02:36:07;14.50;99.90
19586;DHT22;9939;49.246;9.106;2022-07-10T02:38:34;14.40;99.90
19586;DHT22;9939;49.246;9.106;2022-07-10T02:41:01;14.30;99.90
19586;DHT22;9939;49.246;9.106;2022-07-10T02:43:28;14.20;99.90
19586;DHT22;9939;49.246;9.106;2022-07-10T02:45:55;14.40;99.90
19586;DHT22;9939;49.246;9.106;2022-07-10T02:48:22;14.30;99.90
19586;DHT22;9939;49.246;9.106;2022-07-10T02:50:49;14.40;99.90
19586;DHT22;9939;49.246;9.106;2022-07-10T02:53:16;14.40;99.90
19586;DHT22;9939;49.246;9.106;2022-07-10T02:55:43;14.40;99.90
19586;DHT22;9939;49.246;9.106;2022-07-10T02:58:10;14.20;99.90
19586;DHT22;9939;49.246;9.106;2022-07-10T03:00:37;14.40;99.90
19586;DHT22;9939;49.246;9.106;2022-07-10T03:03:04;14.30;99.90
19586;DHT22;9939;49.246;9.106;2022-07-10T03:05:31;14.30;99.90
19586;DHT22;9939;49.246;9.106;2022-07-10T03:07:58;14.20;99.90
19586;DHT22;9939;49.246;9.106;2022-07-10T03:10:25;14.20;99.90
19586;DHT22;9939;49.246;9.106;2022-07-10T03:12:52;14.30;99.90
19586;DHT22;9939;49.246;9.106;2022-07-10T03:15:19;14.40;99.90
19586;DHT22;9939;49.246;9.106;2022-07-10T03:17:46;14.40;99.90
19586;DHT22;9939;49.246;9.106;2022-07-10T03:20:13;14.40;99.90
19586;DHT22;9939;49.246;9.106;2022-07-10T03:22:40;14.40;99.90
19586;DHT22;9939;49.246;9.106;2022-07-10T03:25:07;14.50;99.90
19586;DHT22;9939;49.246;9.106;2022-07-10T03:27:34;14.50;99.90
19586;DHT22;9939;49.246;9.106;2022-07-10T03:30:01;14.50;99.90
19586;DHT22;9939;49.246;9.106;2022-07-10T03:32:29;14.40;99.90
19586;DHT22;9939;49.246;9.106;2022-07-10T03:34:56;14.60;99.90
19586;DHT22;9939;49.246;9.106;2022-07-10T03:37:23;14.50;99.90
19586;DHT22;9939;49.246;9.106;2022-07-10T03:39:51;14.60;99.90
19586;DHT22;9939;49.246;9.106;2022-07-10T03:42:18;14.60;99.90
19586;DHT22;9939;49.246;9.106;2022-07-10T03:44:45;14.60;99.90
19586;DHT22;9939;49.246;9.106;2022-07-10T03:47:12;14.50;99.90
19586;DHT22;9939;49.246;9.106;2022-07-10T03:49:39;14.50;99.90
19586;DHT22;9939;49.246;9.106;2022-07-10T03:52:07;14.50;99.90
19586;DHT22;9939;49.246;9.106;2022-07-10T03:54:33;14.50;99.90
19586;DHT22;9939;49.246;9.106;2022-07-10T03:57:01;14.50;99.90
19586;DHT22;9939;49.246;9.106;2022-07-10T03:59:46;14.40;99.90
19586;DHT22;9939;49.246;9.106;2022-07-10T04:02:13;14.40;99.90
19586;DHT22;9939;49.246;9.106;2022-07-10T04:04:40;14.40;99.90
19586;DHT22;9939;49.246;9.106;2022-07-10T04:07:07;14.50;99.90
19586;DHT22;9939;49.246;9.106;2022-07-10T04:09:34;14.50;99.90
19586;DHT22;9939;49.246;9.106;2022-07-10T04:12:01;14.50;99.90
19586;DHT22;9939;49.246;9.106;2022-07-10T04:14:28;14.60;99.90
19586;DHT22;9939;49.246;9.106;2022-07-10T04:16:55;14.70;99.90
19586;DHT22;9939;49.246;9.106;2022-07-10T04:19:22;14.80;99.90
19586;DHT22;9939;49.246;9.106;2022-07-10T04:21:49;14.90;99.90
19586;DHT22;9939;49.246;9.106;2022-07-10T04:24:16;14.90;99.90
19586;DHT22;9939;49.246;9.106;2022-07-10T04:26:43;14.90;99.90
19586;DHT22;9939;49.246;9.106;2022-07-10T04:29:10;15.00;99.90
19586;DHT22;9939;49.246;9.106;2022-07-10T04:31:37;15.00;99.90
19586;DHT22;9939;49.246;9.106;2022-07-10T04:34:05;15.00;99.90
19586;DHT22;9939;49.246;9.106;2022-07-10T04:36:31;14.90;99.90
19586;DHT22;9939;49.246;9.106;2022-07-10T04:38:58;15.00;99.90
19586;DHT22;9939;49.246;9.106;2022-07-10T04:41:25;15.00;99.90
19586;DHT22;9939;49.246;9.106;2022-07-10T04:43:53;15.00;99.90
19586;DHT22;9939;49.246;9.106;2022-07-10T04:46:19;15.10;99.90
19586;DHT22;9939;49.246;9.106;2022-07-10T04:48:46;15.00;99.90
19586;DHT22;9939;49.246;9.106;2022-07-10T04:51:13;15.10;99.90
19586;DHT22;9939;49.246;9.106;2022-07-10T04:53:40;15.30;99.90
19586;DHT22;9939;49.246;9.106;2022-07-10T04:56:07;15.30;99.90
19586;DHT22;9939;49.246;9.106;2022-07-10T04:58:34;15.40;99.90
19586;DHT22;9939;49.246;9.106;2022-07-10T05:01:02;15.50;99.90
19586;DHT22;9939;49.246;9.106;2022-07-10T05:03:29;15.80;99.90
19586;DHT22;9939;49.246;9.106;2022-07-10T05:05:56;15.90;99.90
19586;DHT22;9939;49.246;9.106;2022-07-10T05:08:23;16.00;99.90
19586;DHT22;9939;49.246;9.106;2022-07-10T05:10:50;16.00;99.90
19586;DHT22;9939;49.246;9.106;2022-07-10T05:13:17;15.90;99.90
19586;DHT22;9939;49.246;9.106;2022-07-10T05:15:46;15.90;99.90
19586;DHT22;9939;49.246;9.106;2022-07-10T05:18:13;15.90;99.90
19586;DHT22;9939;49.246;9.106;2022-07-10T05:20:40;15.90;99.90
19586;DHT22;9939;49.246;9.106;2022-07-10T05:23:10;16.00;99.90
19586;DHT22;9939;49.246;9.106;2022-07-10T05:25:38;16.00;99.90
19586;DHT22;9939;49.246;9.106;2022-07-10T05:28:05;16.00;99.90
19586;DHT22;9939;49.246;9.106;2022-07-10T05:30:32;16.10;99.90
19586;DHT22;9939;49.246;9.106;2022-07-10T05:32:59;16.20;99.90
19586;DHT22;9939;49.246;9.106;2022-07-10T05:35:27;16.20;99.90
19586;DHT22;9939;49.246;9.106;2022-07-10T05:37:54;16.20;99.90
19586;DHT22;9939;49.246;9.106;2022-07-10T05:40:20;16.30;99.90
19586;DHT22;9939;49.246;9.106;2022-07-10T05:42:48;16.60;99.90
19586;DHT22;9939;49.246;9.106;2022-07-10T05:45:15;16.80;99.90
19586;DHT22;9939;49.246;9.106;2022-07-10T05:47:41;16.90;99.90
19586;DHT22;9939;49.246;9.106;2022-07-10T05:50:09;16.90;99.90
19586;DHT22;9939;49.246;9.106;2022-07-10T05:52:35;17.10;99.90
19586;DHT22;9939;49.246;9.106;2022-07-10T05:55:03;17.20;99.90
19586;DHT22;9939;49.246;9.106;2022-07-10T05:57:31;17.20;99.90
19586;DHT22;9939;49.246;9.106;2022-07-10T05:59:58;17.20;99.90
19586;DHT22;9939;49.246;9.106;2022-07-10T06:02:26;17.20;99.90
19586;DHT22;9939;49.246;9.106;2022-07-10T06:04:52;17.30;99.90
19586;DHT22;9939;49.246;9.106;2022-07-10T06:07:19;17.40;99.90
19586;DHT22;9939;49.246;9.106;2022-07-10T06:09:47;17.40;99.90
19586;DHT22;9939;49.246;9.106;2022-07-10T06:12:14;17.40;99.90
19586;DHT22;9939;49.246;9.106;2022-07-10T06:14:42;17.50;99.90
19586;DHT22;9939;49.246;9.106;2022-07-10T06:17:09;17.60;99.90
19586;DHT22;9939;49.246;9.106;2022-07-10T06:19:36;17.50;99.90
19586;DHT22;9939;49.246;9.106;2022-07-10T06:22:03;17.70;99.90
19586;DHT22;9939;49.246;9.106;2022-07-10T06:24:48;17.80;99.90
19586;DHT22;9939;49.246;9.106;2022-07-10T06:27:15;17.90;99.90
19586;DHT22;9939;49.246;9.106;2022-07-10T06:29:42;18.00;99.90
19586;DHT22;9939;49.246;9.106;2022-07-10T06:32:09;18.00;99.90
19586;DHT22;9939;49.246;9.106;2022-07-10T06:34:36;17.90;99.90
19586;DHT22;9939;49.246;9.106;2022-07-10T06:37:03;18.30;99.90
19586;DHT22;9939;49.246;9.106;2022-07-10T06:39:33;18.40;99.90
19586;DHT22;9939;49.246;9.106;2022-07-10T06:42:03;18.60;99.90
19586;DHT22;9939;49.246;9.106;2022-07-10T06:44:37;18.60;99.90
19586;DHT22;9939;49.246;9.106;2022-07-10T06:47:06;18.40;99.90
19586;DHT22;9939;49.246;9.106;2022-07-10T06:49:53;18.30;99.90
19586;DHT22;9939;49.246;9.106;2022-07-10T06:52:20;18.50;99.90
19586;DHT22;9939;49.246;9.106;2022-07-10T06:54:47;18.50;99.90
19586;DHT22;9939;49.246;9.106;2022-07-10T06:57:14;18.60;99.90
19586;DHT22;9939;49.246;9.106;2022-07-10T06:59:41;18.70;99.90
19586;DHT22;9939;49.246;9.106;2022-07-10T07:02:08;18.50;99.90
19586;DHT22;9939;49.246;9.106;2022-07-10T07:04:35;18.80;99.90
19586;DHT22;9939;49.246;9.106;2022-07-10T07:07:03;18.80;99.90
19586;DHT22;9939;49.246;9.106;2022-07-10T07:09:30;18.70;99.90
19586;DHT22;9939;49.246;9.106;2022-07-10T07:11:57;18.50;99.90
19586;DHT22;9939;49.246;9.106;2022-07-10T07:14:24;18.50;99.90
19586;DHT22;9939;49.246;9.106;2022-07-10T07:16:56;18.70;99.90
19586;DHT22;9939;49.246;9.106;2022-07-10T07:19:25;18.70;99.90
19586;DHT22;9939;49.246;9.106;2022-07-10T07:21:58;18.80;99.90
19586;DHT22;9939;49.246;9.106;2022-07-10T07:24:44;19.10;99.90
19586;DHT22;9939;49.246;9.106;2022-07-10T07:27:11;19.30;99.90
19586;DHT22;9939;49.246;9.106;2022-07-10T07:29:38;19.60;99.90
19586;DHT22;9939;49.246;9.106;2022-07-10T07:32:05;19.60;99.90
19586;DHT22;9939;49.246;9.106;2022-07-10T07:34:33;19.40;99.90
19586;DHT22;9939;49.246;9.106;2022-07-10T07:36:59;19.50;99.90
19586;DHT22;9939;49.246;9.106;2022-07-10T07:39:26;19.10;99.90
19586;DHT22;9939;49.246;9.106;2022-07-10T07:41:53;18.70;99.90
19586;DHT22;9939;49.246;9.106;2022-07-10T07:44:20;18.40;99.90
19586;DHT22;9939;49.246;9.106;2022-07-10T07:46:55;18.60;99.90
19586;DHT22;9939;49.246;9.106;2022-07-10T07:49:22;19.30;99.90
19586;DHT22;9939;49.246;9.106;2022-07-10T07:51:48;20.00;99.90
19586;DHT22;9939;49.246;9.106;2022-07-10T07:54:15;20.70;99.90
19586;DHT22;9939;49.246;9.106;2022-07-10T07:56:42;20.60;99.90
19586;DHT22;9939;49.246;9.106;2022-07-10T07:59:09;20.10;99.90
19586;DHT22;9939;49.246;9.106;2022-07-10T08:01:37;20.00;99.90
19586;DHT22;9939;49.246;9.106;2022-07-10T08:04:04;20.00;99.90
19586;DHT22;9939;49.246;9.106;2022-07-10T08:06:36;20.30;99.90
19586;DHT22;9939;49.246;9.106;2022-07-10T08:09:03;20.30;99.90
19586;DHT22;9939;49.246;9.106;2022-07-10T08:11:29;19.80;99.90
19586;DHT22;9939;49.246;9.106;2022-07-10T08:13:57;18.70;99.90
19586;DHT22;9939;49.246;9.106;2022-07-10T08:16:23;19.20;99.90
19586;DHT22;9939;49.246;9.106;2022-07-10T08:18:50;18.80;99.90
19586;DHT22;9939;49.246;9.106;2022-07-10T08:21:18;19.30;99.90
19586;DHT22;9939;49.246;9.106;2022-07-10T08:23:44;19.30;99.90
19586;DHT22;9939;49.246;9.106;2022-07-10T08:26:11;19.10;99.90
19586;DHT22;9939;49.246;9.106;2022-07-10T08:28:38;19.40;99.90
19586;DHT22;9939;49.246;9.106;2022-07-10T08:31:06;20.20;99.90
19586;DHT22;9939;49.246;9.106;2022-07-10T08:33:41;20.80;99.90
19586;DHT22;9939;49.246;9.106;2022-07-10T08:36:07;21.50;99.90
19586;DHT22;9939;49.246;9.106;2022-07-10T08:38:54;21.10;99.90
19586;DHT22;9939;49.246;9.106;2022-07-10T08:41:25;22.00;99.90
19586;DHT22;9939;49.246;9.106;2022-07-10T08:43:53;22.40;99.90
19586;DHT22;9939;49.246;9.106;2022-07-10T08:46:20;22.00;99.90
19586;DHT22;9939;49.246;9.106;2022-07-10T08:48:48;22.10;99.90
19586;DHT22;9939;49.246;9.106;2022-07-10T08:51:29;22.10;99.90
19586;DHT22;9939;49.246;9.106;2022-07-10T08:53:57;22.30;99.90
19586;DHT22;9939;49.246;9.106;2022-07-10T08:56:27;21.50;99.90
19586;DHT22;9939;49.246;9.106;2022-07-10T08:58:54;21.50;99.90
19586;DHT22;9939;49.246;9.106;2022-07-10T09:01:21;21.40;99.90
19586;DHT22;9939;49.246;9.106;2022-07-10T09:03:50;21.30;99.90
19586;DHT22;9939;49.246;9.106;2022-07-10T09:06:17;22.10;99.90
19586;DHT22;9939;49.246;9.106;2022-07-10T09:09:05;22.10;99.90
19586;DHT22;9939;49.246;9.106;2022-07-10T09:11:33;21.50;99.90
19586;DHT22;9939;49.246;9.106;2022-07-10T09:14:02;21.30;99.90
19586;DHT22;9939;49.246;9.106;2022-07-10T09:16:32;21.40;99.90
19586;DHT22;9939;49.246;9.106;2022-07-10T09:19:26;22.10;99.90
19586;DHT22;9939;49.246;9.106;2022-07-10T09:22:07;22.50;99.90
19586;DHT22;9939;49.246;9.106;2022-07-10T09:24:39;22.30;99.90
19586;DHT22;9939;49.246;9.106;2022-07-10T09:27:08;21.50;99.90
19586;DHT22;9939;49.246;9.106;2022-07-10T09:29:52;22.30;99.90
19586;DHT22;9939;49.246;9.106;2022-07-10T09:32:21;22.90;99.90
19586;DHT22;9939;49.246;9.106;2022-07-10T09:34:50;22.70;99.90
19586;DHT22;9939;49.246;9.106;2022-07-10T09:37:42;22.70;99.90
19586;DHT22;9939;49.246;9.106;2022-07-10T09:40:10;22.30;99.90
19586;DHT22;9939;49.246;9.106;2022-07-10T09:42:38;21.70;99.90
19586;DHT22;9939;49.246;9.106;2022-07-10T09:45:13;22.20;99.90
19586;DHT22;9939;49.246;9.106;2022-07-10T09:47:59;22.40;99.90
19586;DHT22;9939;49.246;9.106;2022-07-10T09:50:32;23.50;99.90
19586;DHT22;9939;49.246;9.106;2022-07-10T09:53:07;24.50;99.90
19586;DHT22;9939;49.246;9.106;2022-07-10T09:55:36;23.30;99.90
19586;DHT22;9939;49.246;9.106;2022-07-10T09:58:10;22.60;99.90
19586;DHT22;9939;49.246;9.106;2022-07-10T10:00:39;22.40;99.90
19586;DHT22;9939;49.246;9.106;2022-07-10T10:03:14;22.10;99.90
19586;DHT22;9939;49.246;9.106;2022-07-10T10:05:55;22.10;99.90
19586;DHT22;9939;49.246;9.106;2022-07-10T10:08:25;22.10;99.90
19586;DHT22;9939;49.246;9.106;2022-07-10T10:10:57;21.70;99.90
19586;DHT22;9939;49.246;9.106;2022-07-10T10:13:25;21.50;99.90
19586;DHT22;9939;49.246;9.106;2022-07-10T10:15:57;21.70;99.90
19586;DHT22;9939;49.246;9.106;2022-07-10T10:18:25;22.10;99.90
19586;DHT22;9939;49.246;9.106;2022-07-10T10:20:54;22.30;99.90
19586;DHT22;9939;49.246;9.106;2022-07-10T10:23:23;23.90;99.90
19586;DHT22;9939;49.246;9.106;2022-07-10T10:25:53;25.10;99.90
19586;DHT22;9939;49.246;9.106;2022-07-10T10:28:24;25.40;99.90
19586;DHT22;9939;49.246;9.106;2022-07-10T10:30:56;25.50;99.90
19586;DHT22;9939;49.246;9.106;2022-07-10T10:36:11;24.10;99.90
19586;DHT22;9939;49.246;9.106;2022-07-10T10:46:52;22.20;99.90
19586;DHT22;9939;49.246;9.106;2022-07-10T10:49:50;22.90;99.90
19586;DHT22;9939;49.246;9.106;2022-07-10T10:52:18;23.50;99.90
19586;DHT22;9939;49.246;9.106;2022-07-10T10:59:59;24.70;99.90
19586;DHT22;9939;49.246;9.106;2022-07-10T11:13:14;25.90;98.40
19586;DHT22;9939;49.246;9.106;2022-07-10T11:15:45;25.50;98.30
19586;DHT22;9939;49.246;9.106;2022-07-10T11:20:43;24.80;99.60
19586;DHT22;9939;49.246;9.106;2022-07-10T11:23:55;26.40;98.50
19586;DHT22;9939;49.246;9.106;2022-07-10T11:26:34;26.60;97.50
19586;DHT22;9939;49.246;9.106;2022-07-10T11:29:04;26.40;96.60
19586;DHT22;9939;49.246;9.106;2022-07-10T11:31:34;26.30;95.90
19586;DHT22;9939;49.246;9.106;2022-07-10T11:34:06;26.40;95.50
19586;DHT22;9939;49.246;9.106;2022-07-10T11:36:34;25.80;95.20
19586;DHT22;9939;49.246;9.106;2022-07-10T11:39:06;24.90;96.80
19586;DHT22;9939;49.246;9.106;2022-07-10T11:41:34;24.90;97.20
19586;DHT22;9939;49.246;9.106;2022-07-10T11:44:02;24.40;98.10
19586;DHT22;9939;49.246;9.106;2022-07-10T11:46:32;24.70;97.40
19586;DHT22;9939;49.246;9.106;2022-07-10T11:49:03;24.10;98.20
19586;DHT22;9939;49.246;9.106;2022-07-10T11:51:33;23.90;99.30
19586;DHT22;9939;49.246;9.106;2022-07-10T11:56:32;24.50;97.50
19586;DHT22;9939;49.246;9.106;2022-07-10T11:59:04;25.00;98.00
19586;DHT22;9939;49.246;9.106;2022-07-10T12:01:34;25.90;96.30
19586;DHT22;9939;49.246;9.106;2022-07-10T12:04:05;27.20;95.70
19586;DHT22;9939;49.246;9.106;2022-07-10T12:06:34;27.50;94.80
19586;DHT22;9939;49.246;9.106;2022-07-10T12:11:30;27.40;93.40
19586;DHT22;9939;49.246;9.106;2022-07-10T12:14:17;27.60;93.70
19586;DHT22;9939;49.246;9.106;2022-07-10T12:16:50;26.60;94.80
19586;DHT22;9939;49.246;9.106;2022-07-10T12:19:23;25.70;95.70
19586;DHT22;9939;49.246;9.106;2022-07-10T12:21:51;25.90;96.60
19586;DHT22;9939;49.246;9.106;2022-07-10T12:24:24;25.60;96.90
19586;DHT22;9939;49.246;9.106;2022-07-10T12:26:51;25.60;95.40
19586;DHT22;9939;49.246;9.106;2022-07-10T12:29:26;24.70;96.70
19586;DHT22;9939;49.246;9.106;2022-07-10T12:31:57;25.20;96.20
19586;DHT22;9939;49.246;9.106;2022-07-10T12:34:38;24.40;97.20
19586;DHT22;9939;49.246;9.106;2022-07-10T12:37:16;24.80;96.50
19586;DHT22;9939;49.246;9.106;2022-07-10T12:39:51;27.00;94.60
19586;DHT22;9939;49.246;9.106;2022-07-10T12:42:28;29.40;92.60
19586;DHT22;9939;49.246;9.106;2022-07-10T12:45:09;32.00;89.70
19586;DHT22;9939;49.246;9.106;2022-07-10T12:47:47;31.30;85.10
19586;DHT22;9939;49.246;9.106;2022-07-10T12:50:16;30.20;86.70
19586;DHT22;9939;49.246;9.106;2022-07-10T12:52:44;27.00;91.20
19586;DHT22;9939;49.246;9.106;2022-07-10T12:57:54;26.10;92.50
19586;DHT22;9939;49.246;9.106;2022-07-10T13:00:29;25.70;93.10
19586;DHT22;9939;49.246;9.106;2022-07-10T13:03:09;25.80;92.30
19586;DHT22;9939;49.246;9.106;2022-07-10T13:05:40;29.40;91.00
19586;DHT22;9939;49.246;9.106;2022-07-10T13:08:11;32.10;84.80
19586;DHT22;9939;49.246;9.106;2022-07-10T13:10:41;30.00;84.60
19586;DHT22;9939;49.246;9.106;2022-07-10T13:13:08;33.80;80.80
19586;DHT22;9939;49.246;9.106;2022-07-10T13:15:36;35.80;74.80
19586;DHT22;9939;49.246;9.106;2022-07-10T13:18:07;33.80;74.00
19586;DHT22;9939;49.246;9.106;2022-07-10T13:20:35;31.30;77.40
19586;DHT22;9939;49.246;9.106;2022-07-10T13:23:02;31.00;80.00
19586;DHT22;9939;49.246;9.106;2022-07-10T13:25:29;29.90;80.30
19586;DHT22;9939;49.246;9.106;2022-07-10T13:27:56;28.50;83.80
19586;DHT22;9939;49.246;9.106;2022-07-10T13:30:23;27.20;86.00
19586;DHT22;9939;49.246;9.106;2022-07-10T13:32:50;24.70;90.20
19586;DHT22;9939;49.246;9.106;2022-07-10T13:35:17;24.40;91.60
19586;DHT22;9939;49.246;9.106;2022-07-10T13:37:44;23.90;92.30
19586;DHT22;9939;49.246;9.106;2022-07-10T13:40:11;23.60;92.90
19586;DHT22;9939;49.246;9.106;2022-07-10T13:42:38;23.80;93.60
19586;DHT22;9939;49.246;9.106;2022-07-10T13:45:05;24.70;92.20
19586;DHT22;9939;49.246;9.106;2022-07-10T13:47:32;25.00;91.30
19586;DHT22;9939;49.246;9.106;2022-07-10T13:49:59;25.40;91.80
19586;DHT22;9939;49.246;9.106;2022-07-10T13:52:26;25.70;91.30
19586;DHT22;9939;49.246;9.106;2022-07-10T13:54:53;26.60;91.00
19586;DHT22;9939;49.246;9.106;2022-07-10T13:57:20;28.20;86.80
19586;DHT22;9939;49.246;9.106;2022-07-10T13:59:47;27.00;87.90
19586;DHT22;9939;49.246;9.106;2022-07-10T14:02:14;25.80;90.20
19586;DHT22;9939;49.246;9.106;2022-07-10T14:04:42;26.30;90.30
19586;DHT22;9939;49.246;9.106;2022-07-10T14:07:09;25.50;91.50
19586;DHT22;9939;49.246;9.106;2022-07-10T14:09:36;24.70;92.40
19586;DHT22;9939;49.246;9.106;2022-07-10T14:12:03;26.00;91.40
19586;DHT22;9939;49.246;9.106;2022-07-10T14:14:30;25.30;91.50
19586;DHT22;9939;49.246;9.106;2022-07-10T14:16:57;24.70;92.10
19586;DHT22;9939;49.246;9.106;2022-07-10T14:19:24;25.60;91.90
19586;DHT22;9939;49.246;9.106;2022-07-10T14:21:51;25.60;91.50
19586;DHT22;9939;49.246;9.106;2022-07-10T14:24:18;24.80;91.70
19586;DHT22;9939;49.246;9.106;2022-07-10T14:26:45;24.80;92.30
19586;DHT22;9939;49.246;9.106;2022-07-10T14:29:13;24.50;92.10
19586;DHT22;9939;49.246;9.106;2022-07-10T14:31:40;23.70;92.70
19586;DHT22;9939;49.246;9.106;2022-07-10T14:34:07;24.20;93.10
19586;DHT22;9939;49.246;9.106;2022-07-10T14:36:34;28.30;88.60
19586;DHT22;9939;49.246;9.106;2022-07-10T14:39:01;30.80;85.10
19586;DHT22;9939;49.246;9.106;2022-07-10T14:41:28;31.90;82.20
19586;DHT22;9939;49.246;9.106;2022-07-10T14:43:55;31.40;79.60
19586;DHT22;9939;49.246;9.106;2022-07-10T14:46:22;31.00;80.30
19586;DHT22;9939;49.246;9.106;2022-07-10T14:48:50;29.50;83.30
19586;DHT22;9939;49.246;9.106;2022-07-10T14:51:17;27.50;85.40
19586;DHT22;9939;49.246;9.106;2022-07-10T14:53:52;26.60;88.00
19586;DHT22;9939;49.246;9.106;2022-07-10T14:56:20;27.50;88.10
19586;DHT22;9939;49.246;9.106;2022-07-10T14:58:48;30.20;82.60
19586;DHT22;9939;49.246;9.106;2022-07-10T15:01:35;32.10;79.60
19586;DHT22;9939;49.246;9.106;2022-07-10T15:04:02;35.40;75.70
19586;DHT22;9939;49.246;9.106;2022-07-10T15:06:29;37.40;69.40
19586;DHT22;9939;49.246;9.106;2022-07-10T15:08:57;38.70;66.20
19586;DHT22;9939;49.246;9.106;2022-07-10T15:11:24;38.50;64.30
19586;DHT22;9939;49.246;9.106;2022-07-10T15:13:53;36.60;64.50
19586;DHT22;9939;49.246;9.106;2022-07-10T15:16:26;33.80;68.60
19586;DHT22;9939;49.246;9.106;2022-07-10T15:18:54;34.50;70.00
19586;DHT22;9939;49.246;9.106;2022-07-10T15:21:22;36.30;67.80
19586;DHT22;9939;49.246;9.106;2022-07-10T15:23:49;37.20;64.80
19586;DHT22;9939;49.246;9.106;2022-07-10T15:26:16;35.80;65.90
19586;DHT22;9939;49.246;9.106;2022-07-10T15:28:44;36.10;65.30
19586;DHT22;9939;49.246;9.106;2022-07-10T15:31:11;36.30;66.20
19586;DHT22;9939;49.246;9.106;2022-07-10T15:33:38;37.20;65.10
19586;DHT22;9939;49.246;9.106;2022-07-10T15:36:12;36.60;64.60
19586;DHT22;9939;49.246;9.106;2022-07-10T15:38:39;35.60;65.20
19586;DHT22;9939;49.246;9.106;2022-07-10T15:41:08;32.20;70.00
19586;DHT22;9939;49.246;9.106;2022-07-10T15:43:35;31.30;72.00
19586;DHT22;9939;49.246;9.106;2022-07-10T15:46:02;33.20;71.40
19586;DHT22;9939;49.246;9.106;2022-07-10T15:48:29;34.00;69.00
19586;DHT22;9939;49.246;9.106;2022-07-10T15:50:56;34.90;68.80
19586;DHT22;9939;49.246;9.106;2022-07-10T15:53:23;33.30;69.10
19586;DHT22;9939;49.246;9.106;2022-07-10T15:55:50;31.60;72.00
19586;DHT22;9939;49.246;9.106;2022-07-10T15:58:17;29.40;74.60
19586;DHT22;9939;49.246;9.106;2022-07-10T16:00:44;28.00;79.10
19586;DHT22;9939;49.246;9.106;2022-07-10T16:03:10;27.00;83.40
19586;DHT22;9939;49.246;9.106;2022-07-10T16:05:38;26.40;84.70
19586;DHT22;9939;49.246;9.106;2022-07-10T16:08:05;25.70;86.00
19586;DHT22;9939;49.246;9.106;2022-07-10T16:10:32;24.90;87.80
19586;DHT22;9939;49.246;9.106;2022-07-10T16:12:59;24.30;89.60
19586;DHT22;9939;49.246;9.106;2022-07-10T16:15:26;23.80;90.20
19586;DHT22;9939;49.246;9.106;2022-07-10T16:17:53;23.70;90.70
19586;DHT22;9939;49.246;9.106;2022-07-10T16:20:20;23.90;90.80
19586;DHT22;9939;49.246;9.106;2022-07-10T16:22:47;23.50;91.50
19586;DHT22;9939;49.246;9.106;2022-07-10T16:25:14;23.50;91.70
19586;DHT22;9939;49.246;9.106;2022-07-10T16:28:00;23.10;92.30
19586;DHT22;9939;49.246;9.106;2022-07-10T16:30:27;23.20;92.30
19586;DHT22;9939;49.246;9.106;2022-07-10T16:32:54;23.60;92.30